Antwerp, NY

9:26 PM EDT on May 24, 2015 (GMT -0400)
little bow and gravel road | | Change Station
CLOSE
Current Station
Personal Weather Station
Location: Gouverneur, NY
Elevation: 397 ft
Nearby Weather Stations

Elev 397 ft 44.35 °N, 75.51 °W | Updated 4 seconds ago

Clear
Clear
64.0 °F
Feels Like 64.0 °F
N
0.0
Wind Variable Wind from SW
Gusts 0.0 mph

Today
High -- | Low -- °F
--% Chance of Precip.
Yesterday
High -- | Low -- °F
Precip. -- in
5:27 AM 8:31 PM
Waxing Crescent, 44% visible
Pressure 30.14 in
Visibility 10.0 miles
Clouds Clear
Dew Point 44 °F
Humidity 48%
Rainfall 0.00 in
Snow Depth Not available.
UV 0.0 out of 12
Pollen 10.20 out of 12
Air Quality Not available.
Flu Activity Widespread
METAR KGTB 250058Z AUTO 22006KT 10SM CLR 19/05 A3014 RMK AO2 SLP205 T01890046 $

More Conditions Fewer Conditions

Pressure 30.14 in
Visibility 10.0 miles
Clouds Clear
Dew Point 44 °F
Humidity 48%
Rainfall 0.00 in
Snow Depth Not available.
UV 0.0 out of 12
Pollen 10.20 out of 12
Air Quality Not available.
Flu Activity Widespread
METAR KGTB 250058Z AUTO 22006KT 10SM CLR 19/05 A3014 RMK AO2 SLP205 T01890046 $

More Conditions Fewer Conditions

10-Day Weather Forecast

Almanac

Astronomy

May. 24, 2015 Rise Set
Actual Time
Civil Twilight
Nautical Twilight
Astronomical Twilight
Moon
Length of Visible Light
Length of Day
Tomorrow will be .
, % of the Moon is Illuminated

Today's Extremes

State Highs State Lows

Community

WunderPhotos

Upload Photos

1,823,918 photos uploaded!

WunderBlogs® & News

Nearby

Air Quality

  Air Quality AQ Index Pollutant
Not available.

Snow Depth

Station Depth Elevation

Earthquake Activity

City Distance Mag. Time & Date
Minimum magnitude displayed is 2.5.

Coastal Water Temperatures

Place Temperature

Stations

Nearby Weather Stations

Station Location Temp. Windchill Dew Point Humidity Wind Precip. Elev Updated Type